sensor_id;sensor_type;location;lat;lon;timestamp;temperature;humidity
16625;DHT22;8426;48.496;9.098;2022-07-18T00:02:14;13.90;99.90
16625;DHT22;8426;48.496;9.098;2022-07-18T00:07:17;13.90;99.90
16625;DHT22;8426;48.496;9.098;2022-07-18T00:12:21;13.90;99.90
16625;DHT22;8426;48.496;9.098;2022-07-18T00:17:26;13.90;99.90
16625;DHT22;8426;48.496;9.098;2022-07-18T00:22:29;13.80;99.90
16625;DHT22;8426;48.496;9.098;2022-07-18T00:27:35;13.60;99.90
16625;DHT22;8426;48.496;9.098;2022-07-18T00:32:40;13.40;99.90
16625;DHT22;8426;48.496;9.098;2022-07-18T00:37:44;13.30;99.90
16625;DHT22;8426;48.496;9.098;2022-07-18T00:42:47;13.30;99.90
16625;DHT22;8426;48.496;9.098;2022-07-18T00:47:55;13.50;99.90
16625;DHT22;8426;48.496;9.098;2022-07-18T00:53:00;13.50;99.90
16625;DHT22;8426;48.496;9.098;2022-07-18T00:58:04;13.40;99.90
16625;DHT22;8426;48.496;9.098;2022-07-18T01:03:10;13.30;99.90
16625;DHT22;8426;48.496;9.098;2022-07-18T01:08:14;13.20;99.90
16625;DHT22;8426;48.496;9.098;2022-07-18T01:13:20;13.20;99.90
16625;DHT22;8426;48.496;9.098;2022-07-18T01:18:26;13.00;99.90
16625;DHT22;8426;48.496;9.098;2022-07-18T01:23:31;12.90;99.90
16625;DHT22;8426;48.496;9.098;2022-07-18T01:28:34;13.00;99.90
16625;DHT22;8426;48.496;9.098;2022-07-18T01:33:39;12.90;99.90
16625;DHT22;8426;48.496;9.098;2022-07-18T01:38:48;12.90;99.90
16625;DHT22;8426;48.496;9.098;2022-07-18T01:43:52;12.70;99.90
16625;DHT22;8426;48.496;9.098;2022-07-18T01:48:56;12.40;99.90
16625;DHT22;8426;48.496;9.098;2022-07-18T01:54:01;12.30;99.90
16625;DHT22;8426;48.496;9.098;2022-07-18T01:59:05;12.10;99.90
16625;DHT22;8426;48.496;9.098;2022-07-18T02:04:08;12.10;99.90
16625;DHT22;8426;48.496;9.098;2022-07-18T02:09:13;12.00;99.90
16625;DHT22;8426;48.496;9.098;2022-07-18T02:14:17;11.90;99.90
16625;DHT22;8426;48.496;9.098;2022-07-18T02:19:21;11.90;99.90
16625;DHT22;8426;48.496;9.098;2022-07-18T02:24:30;12.00;99.90
16625;DHT22;8426;48.496;9.098;2022-07-18T02:29:50;11.90;99.90
16625;DHT22;8426;48.496;9.098;2022-07-18T02:34:54;11.80;99.90
16625;DHT22;8426;48.496;9.098;2022-07-18T02:39:58;11.60;99.90
16625;DHT22;8426;48.496;9.098;2022-07-18T02:45:03;11.50;99.90
16625;DHT22;8426;48.496;9.098;2022-07-18T02:50:08;11.40;99.90
16625;DHT22;8426;48.496;9.098;2022-07-18T02:55:13;11.40;99.90
16625;DHT22;8426;48.496;9.098;2022-07-18T03:00:21;11.40;99.90
16625;DHT22;8426;48.496;9.098;2022-07-18T03:05:26;11.20;99.90
16625;DHT22;8426;48.496;9.098;2022-07-18T03:10:34;11.10;99.90
16625;DHT22;8426;48.496;9.098;2022-07-18T03:15:39;11.00;99.90
16625;DHT22;8426;48.496;9.098;2022-07-18T03:20:42;11.00;99.90
16625;DHT22;8426;48.496;9.098;2022-07-18T03:25:46;11.00;99.90
16625;DHT22;8426;48.496;9.098;2022-07-18T03:30:56;11.00;99.90
16625;DHT22;8426;48.496;9.098;2022-07-18T03:36:01;11.00;99.90
16625;DHT22;8426;48.496;9.098;2022-07-18T03:41:04;11.00;99.90
16625;DHT22;8426;48.496;9.098;2022-07-18T03:46:09;11.00;99.90
16625;DHT22;8426;48.496;9.098;2022-07-18T03:51:13;11.00;99.90
16625;DHT22;8426;48.496;9.098;2022-07-18T03:56:17;11.10;99.90
16625;DHT22;8426;48.496;9.098;2022-07-18T04:01:21;11.10;99.90
16625;DHT22;8426;48.496;9.098;2022-07-18T04:06:25;11.10;99.90
16625;DHT22;8426;48.496;9.098;2022-07-18T04:11:28;11.20;99.90
16625;DHT22;8426;48.496;9.098;2022-07-18T04:16:33;11.20;99.90
16625;DHT22;8426;48.496;9.098;2022-07-18T04:21:39;11.20;99.90
16625;DHT22;8426;48.496;9.098;2022-07-18T04:26:43;11.40;99.90
16625;DHT22;8426;48.496;9.098;2022-07-18T04:31:48;11.50;99.90
16625;DHT22;8426;48.496;9.098;2022-07-18T04:36:52;11.70;99.90
16625;DHT22;8426;48.496;9.098;2022-07-18T04:41:56;11.90;99.90
16625;DHT22;8426;48.496;9.098;2022-07-18T04:47:01;12.10;99.90
16625;DHT22;8426;48.496;9.098;2022-07-18T04:52:06;12.40;99.90
16625;DHT22;8426;48.496;9.098;2022-07-18T04:57:10;12.60;99.90
16625;DHT22;8426;48.496;9.098;2022-07-18T05:02:19;12.90;99.90
16625;DHT22;8426;48.496;9.098;2022-07-18T05:07:48;13.10;99.90
16625;DHT22;8426;48.496;9.098;2022-07-18T05:12:53;13.40;99.90
16625;DHT22;8426;48.496;9.098;2022-07-18T05:17:58;13.70;99.90
16625;DHT22;8426;48.496;9.098;2022-07-18T05:23:03;13.90;99.90
16625;DHT22;8426;48.496;9.098;2022-07-18T05:28:06;14.10;99.90
16625;DHT22;8426;48.496;9.098;2022-07-18T05:33:11;14.20;99.90
16625;DHT22;8426;48.496;9.098;2022-07-18T05:38:18;14.40;99.90
16625;DHT22;8426;48.496;9.098;2022-07-18T05:44:05;14.70;99.90
16625;DHT22;8426;48.496;9.098;2022-07-18T05:49:20;15.10;99.90
16625;DHT22;8426;48.496;9.098;2022-07-18T05:54:23;15.40;99.90
16625;DHT22;8426;48.496;9.098;2022-07-18T05:59:46;16.90;99.90
16625;DHT22;8426;48.496;9.098;2022-07-18T06:05:02;23.00;99.90
16625;DHT22;8426;48.496;9.098;2022-07-18T06:10:35;27.60;93.30
16625;DHT22;8426;48.496;9.098;2022-07-18T06:15:47;31.30;86.80
16625;DHT22;8426;48.496;9.098;2022-07-18T06:20:52;33.30;77.60
16625;DHT22;8426;48.496;9.098;2022-07-18T06:25:55;33.40;73.20
16625;DHT22;8426;48.496;9.098;2022-07-18T06:30:58;35.10;68.90
16625;DHT22;8426;48.496;9.098;2022-07-18T06:36:04;34.80;66.50
16625;DHT22;8426;48.496;9.098;2022-07-18T06:41:08;35.20;66.30
16625;DHT22;8426;48.496;9.098;2022-07-18T06:46:11;35.20;65.40
16625;DHT22;8426;48.496;9.098;2022-07-18T06:51:16;36.00;64.00
16625;DHT22;8426;48.496;9.098;2022-07-18T06:56:20;35.90;63.20
16625;DHT22;8426;48.496;9.098;2022-07-18T07:01:48;34.80;64.40
16625;DHT22;8426;48.496;9.098;2022-07-18T07:06:53;35.60;65.70
16625;DHT22;8426;48.496;9.098;2022-07-18T07:11:57;35.90;61.60
16625;DHT22;8426;48.496;9.098;2022-07-18T07:17:00;36.20;62.00
16625;DHT22;8426;48.496;9.098;2022-07-18T07:22:05;36.80;60.70
16625;DHT22;8426;48.496;9.098;2022-07-18T07:27:08;36.70;60.10
16625;DHT22;8426;48.496;9.098;2022-07-18T07:32:13;37.20;60.50
16625;DHT22;8426;48.496;9.098;2022-07-18T07:37:18;37.90;57.50
16625;DHT22;8426;48.496;9.098;2022-07-18T07:42:45;38.70;57.10
16625;DHT22;8426;48.496;9.098;2022-07-18T07:47:49;38.30;56.80
16625;DHT22;8426;48.496;9.098;2022-07-18T07:52:53;38.80;55.40
16625;DHT22;8426;48.496;9.098;2022-07-18T07:57:57;38.60;57.00
16625;DHT22;8426;48.496;9.098;2022-07-18T08:03:02;38.70;55.70
16625;DHT22;8426;48.496;9.098;2022-07-18T08:08:07;38.70;55.10
16625;DHT22;8426;48.496;9.098;2022-07-18T08:13:12;38.60;57.90
16625;DHT22;8426;48.496;9.098;2022-07-18T08:18:15;39.70;53.70
16625;DHT22;8426;48.496;9.098;2022-07-18T08:23:20;38.60;54.80
16625;DHT22;8426;48.496;9.098;2022-07-18T08:28:24;38.10;55.60
16625;DHT22;8426;48.496;9.098;2022-07-18T08:33:28;38.40;54.70
16625;DHT22;8426;48.496;9.098;2022-07-18T08:38:34;38.20;57.30
16625;DHT22;8426;48.496;9.098;2022-07-18T08:43:38;38.00;55.90
16625;DHT22;8426;48.496;9.098;2022-07-18T08:48:41;38.60;56.60
16625;DHT22;8426;48.496;9.098;2022-07-18T08:53:47;38.40;55.10
16625;DHT22;8426;48.496;9.098;2022-07-18T08:58:53;38.60;54.30
16625;DHT22;8426;48.496;9.098;2022-07-18T09:04:11;37.10;56.10
16625;DHT22;8426;48.496;9.098;2022-07-18T09:09:21;36.70;58.00
16625;DHT22;8426;48.496;9.098;2022-07-18T09:14:32;37.20;57.00
16625;DHT22;8426;48.496;9.098;2022-07-18T09:19:37;36.50;56.70
16625;DHT22;8426;48.496;9.098;2022-07-18T09:25:02;37.00;58.20
16625;DHT22;8426;48.496;9.098;2022-07-18T09:30:21;37.80;56.20
16625;DHT22;8426;48.496;9.098;2022-07-18T09:35:27;36.90;56.50
16625;DHT22;8426;48.496;9.098;2022-07-18T09:40:34;37.20;57.20
16625;DHT22;8426;48.496;9.098;2022-07-18T09:45:40;37.20;57.10
16625;DHT22;8426;48.496;9.098;2022-07-18T09:50:52;36.90;55.30
16625;DHT22;8426;48.496;9.098;2022-07-18T09:55:59;38.00;53.90
16625;DHT22;8426;48.496;9.098;2022-07-18T10:01:05;38.10;53.70
16625;DHT22;8426;48.496;9.098;2022-07-18T10:06:10;37.40;53.50
16625;DHT22;8426;48.496;9.098;2022-07-18T10:11:15;36.70;52.90
16625;DHT22;8426;48.496;9.098;2022-07-18T10:16:18;36.90;53.70
16625;DHT22;8426;48.496;9.098;2022-07-18T10:21:22;36.50;51.70
16625;DHT22;8426;48.496;9.098;2022-07-18T10:26:28;36.20;53.70
16625;DHT22;8426;48.496;9.098;2022-07-18T10:31:33;35.50;54.10
16625;DHT22;8426;48.496;9.098;2022-07-18T10:36:40;35.30;55.50
16625;DHT22;8426;48.496;9.098;2022-07-18T10:42:15;34.20;56.50
16625;DHT22;8426;48.496;9.098;2022-07-18T10:47:19;34.20;56.00
16625;DHT22;8426;48.496;9.098;2022-07-18T10:52:55;33.20;58.60
16625;DHT22;8426;48.496;9.098;2022-07-18T10:58:18;33.10;59.80
16625;DHT22;8426;48.496;9.098;2022-07-18T11:03:28;34.00;57.20
16625;DHT22;8426;48.496;9.098;2022-07-18T11:08:31;34.10;57.60
16625;DHT22;8426;48.496;9.098;2022-07-18T11:13:37;33.70;56.80
16625;DHT22;8426;48.496;9.098;2022-07-18T11:24:27;33.70;59.90
16625;DHT22;8426;48.496;9.098;2022-07-18T11:29:40;33.90;59.20
16625;DHT22;8426;48.496;9.098;2022-07-18T11:34:49;33.80;56.10
16625;DHT22;8426;48.496;9.098;2022-07-18T11:39:54;34.00;56.50
16625;DHT22;8426;48.496;9.098;2022-07-18T11:44:59;33.60;56.40
16625;DHT22;8426;48.496;9.098;2022-07-18T11:50:03;34.10;58.90
16625;DHT22;8426;48.496;9.098;2022-07-18T11:55:07;34.70;56.30
16625;DHT22;8426;48.496;9.098;2022-07-18T12:00:18;34.70;56.40
16625;DHT22;8426;48.496;9.098;2022-07-18T12:05:30;34.40;57.80
16625;DHT22;8426;48.496;9.098;2022-07-18T12:10:34;34.60;56.30
16625;DHT22;8426;48.496;9.098;2022-07-18T12:15:40;34.60;58.50
16625;DHT22;8426;48.496;9.098;2022-07-18T12:20:44;34.10;57.00
16625;DHT22;8426;48.496;9.098;2022-07-18T12:25:55;33.50;58.00
16625;DHT22;8426;48.496;9.098;2022-07-18T12:31:01;33.80;59.20
16625;DHT22;8426;48.496;9.098;2022-07-18T12:36:05;34.40;58.00
16625;DHT22;8426;48.496;9.098;2022-07-18T12:41:08;34.40;58.80
16625;DHT22;8426;48.496;9.098;2022-07-18T12:46:13;34.50;59.00
16625;DHT22;8426;48.496;9.098;2022-07-18T12:51:17;34.50;57.00
16625;DHT22;8426;48.496;9.098;2022-07-18T12:56:21;34.00;56.60
16625;DHT22;8426;48.496;9.098;2022-07-18T13:01:25;33.80;56.70
16625;DHT22;8426;48.496;9.098;2022-07-18T13:06:29;33.80;58.10
16625;DHT22;8426;48.496;9.098;2022-07-18T13:11:32;33.90;59.30
16625;DHT22;8426;48.496;9.098;2022-07-18T13:16:38;33.90;58.50
16625;DHT22;8426;48.496;9.098;2022-07-18T13:21:41;33.90;57.50
16625;DHT22;8426;48.496;9.098;2022-07-18T13:26:45;33.80;59.20
16625;DHT22;8426;48.496;9.098;2022-07-18T13:31:50;34.10;58.50
16625;DHT22;8426;48.496;9.098;2022-07-18T13:36:55;34.30;57.60
16625;DHT22;8426;48.496;9.098;2022-07-18T13:41:58;34.20;57.00
16625;DHT22;8426;48.496;9.098;2022-07-18T13:47:06;33.50;58.70
16625;DHT22;8426;48.496;9.098;2022-07-18T13:52:10;33.90;58.20
16625;DHT22;8426;48.496;9.098;2022-07-18T13:57:13;33.70;59.50
16625;DHT22;8426;48.496;9.098;2022-07-18T14:02:19;33.60;56.60
16625;DHT22;8426;48.496;9.098;2022-07-18T14:07:23;33.30;57.20
16625;DHT22;8426;48.496;9.098;2022-07-18T14:12:27;33.50;56.40
16625;DHT22;8426;48.496;9.098;2022-07-18T14:17:32;33.50;56.60
16625;DHT22;8426;48.496;9.098;2022-07-18T14:22:36;33.50;56.80
16625;DHT22;8426;48.496;9.098;2022-07-18T14:27:40;33.40;57.50
16625;DHT22;8426;48.496;9.098;2022-07-18T14:32:45;33.40;58.40
16625;DHT22;8426;48.496;9.098;2022-07-18T14:37:48;33.50;57.50
16625;DHT22;8426;48.496;9.098;2022-07-18T14:42:52;33.20;59.10
16625;DHT22;8426;48.496;9.098;2022-07-18T14:47:57;33.20;57.50
16625;DHT22;8426;48.496;9.098;2022-07-18T14:53:00;33.40;58.70
16625;DHT22;8426;48.496;9.098;2022-07-18T14:58:06;33.20;58.40
16625;DHT22;8426;48.496;9.098;2022-07-18T15:03:12;33.20;57.80
16625;DHT22;8426;48.496;9.098;2022-07-18T15:08:35;33.10;56.50
16625;DHT22;8426;48.496;9.098;2022-07-18T15:13:39;33.10;56.30
16625;DHT22;8426;48.496;9.098;2022-07-18T15:18:44;33.10;58.50
16625;DHT22;8426;48.496;9.098;2022-07-18T15:23:49;33.20;57.30
16625;DHT22;8426;48.496;9.098;2022-07-18T15:28:55;33.30;56.40
16625;DHT22;8426;48.496;9.098;2022-07-18T15:34:01;33.20;57.00
16625;DHT22;8426;48.496;9.098;2022-07-18T15:39:17;33.00;59.70
16625;DHT22;8426;48.496;9.098;2022-07-18T15:50:28;32.80;59.20
16625;DHT22;8426;48.496;9.098;2022-07-18T15:55:36;32.50;58.10
16625;DHT22;8426;48.496;9.098;2022-07-18T16:01:32;32.50;59.00
16625;DHT22;8426;48.496;9.098;2022-07-18T16:06:53;32.30;59.80
16625;DHT22;8426;48.496;9.098;2022-07-18T16:11:59;32.00;58.90
16625;DHT22;8426;48.496;9.098;2022-07-18T16:17:28;32.00;57.90
16625;DHT22;8426;48.496;9.098;2022-07-18T16:23:37;32.10;58.00
16625;DHT22;8426;48.496;9.098;2022-07-18T16:28:47;32.00;59.40
16625;DHT22;8426;48.496;9.098;2022-07-18T16:34:04;31.80;57.60
16625;DHT22;8426;48.496;9.098;2022-07-18T16:39:16;31.70;59.60
16625;DHT22;8426;48.496;9.098;2022-07-18T16:44:36;31.60;59.20
16625;DHT22;8426;48.496;9.098;2022-07-18T16:49:41;31.30;59.50
16625;DHT22;8426;48.496;9.098;2022-07-18T16:55:07;31.20;59.40
16625;DHT22;8426;48.496;9.098;2022-07-18T17:00:24;31.00;59.60
16625;DHT22;8426;48.496;9.098;2022-07-18T17:05:45;31.10;62.20
16625;DHT22;8426;48.496;9.098;2022-07-18T17:10:54;31.00;61.00
16625;DHT22;8426;48.496;9.098;2022-07-18T17:15:58;30.80;62.30
16625;DHT22;8426;48.496;9.098;2022-07-18T17:21:04;30.50;62.80
16625;DHT22;8426;48.496;9.098;2022-07-18T17:26:18;30.40;62.50
16625;DHT22;8426;48.496;9.098;2022-07-18T17:31:29;30.20;62.10
16625;DHT22;8426;48.496;9.098;2022-07-18T17:36:45;30.00;64.20
16625;DHT22;8426;48.496;9.098;2022-07-18T17:48:01;29.40;66.50
16625;DHT22;8426;48.496;9.098;2022-07-18T17:53:14;29.20;64.80
16625;DHT22;8426;48.496;9.098;2022-07-18T17:58:23;28.90;65.90
16625;DHT22;8426;48.496;9.098;2022-07-18T18:09:56;28.40;67.70
16625;DHT22;8426;48.496;9.098;2022-07-18T18:15:23;28.00;71.70
16625;DHT22;8426;48.496;9.098;2022-07-18T18:20:47;27.70;71.70
16625;DHT22;8426;48.496;9.098;2022-07-18T18:25:55;27.50;72.30
16625;DHT22;8426;48.496;9.098;2022-07-18T18:31:00;27.50;71.20
16625;DHT22;8426;48.496;9.098;2022-07-18T18:36:05;27.40;71.20
16625;DHT22;8426;48.496;9.098;2022-07-18T18:41:13;27.40;70.10
16625;DHT22;8426;48.496;9.098;2022-07-18T18:46:48;27.30;71.00
16625;DHT22;8426;48.496;9.098;2022-07-18T18:52:06;27.10;73.50
16625;DHT22;8426;48.496;9.098;2022-07-18T18:57:28;26.80;72.60
16625;DHT22;8426;48.496;9.098;2022-07-18T19:02:41;26.40;76.40
16625;DHT22;8426;48.496;9.098;2022-07-18T19:07:51;25.90;80.80
16625;DHT22;8426;48.496;9.098;2022-07-18T19:19:03;24.30;85.40
16625;DHT22;8426;48.496;9.098;2022-07-18T19:24:08;23.70;89.00
16625;DHT22;8426;48.496;9.098;2022-07-18T19:29:15;23.10;88.00
16625;DHT22;8426;48.496;9.098;2022-07-18T19:34:25;22.70;90.60
16625;DHT22;8426;48.496;9.098;2022-07-18T19:39:30;22.20;90.50
16625;DHT22;8426;48.496;9.098;2022-07-18T19:44:46;21.70;91.40
16625;DHT22;8426;48.496;9.098;2022-07-18T19:49:58;21.70;92.90
16625;DHT22;8426;48.496;9.098;2022-07-18T19:55:15;21.50;92.40
16625;DHT22;8426;48.496;9.098;2022-07-18T20:00:34;21.30;92.60
16625;DHT22;8426;48.496;9.098;2022-07-18T20:05:46;21.00;93.10
16625;DHT22;8426;48.496;9.098;2022-07-18T20:10:58;20.70;93.90
16625;DHT22;8426;48.496;9.098;2022-07-18T20:16:21;20.30;94.30
16625;DHT22;8426;48.496;9.098;2022-07-18T20:21:32;20.20;95.70
16625;DHT22;8426;48.496;9.098;2022-07-18T20:26:41;20.20;95.70
16625;DHT22;8426;48.496;9.098;2022-07-18T20:31:57;20.10;95.20
16625;DHT22;8426;48.496;9.098;2022-07-18T20:37:24;19.70;95.40
16625;DHT22;8426;48.496;9.098;2022-07-18T20:42:30;19.40;96.20
16625;DHT22;8426;48.496;9.098;2022-07-18T20:47:40;19.20;96.50
16625;DHT22;8426;48.496;9.098;2022-07-18T20:52:46;19.10;96.90
16625;DHT22;8426;48.496;9.098;2022-07-18T20:57:52;19.20;97.10
16625;DHT22;8426;48.496;9.098;2022-07-18T21:02:58;19.10;96.40
16625;DHT22;8426;48.496;9.098;2022-07-18T21:08:04;19.00;96.70
16625;DHT22;8426;48.496;9.098;2022-07-18T21:13:27;18.80;97.50
16625;DHT22;8426;48.496;9.098;2022-07-18T21:18:32;18.70;98.70
16625;DHT22;8426;48.496;9.098;2022-07-18T21:23:39;18.60;99.30
16625;DHT22;8426;48.496;9.098;2022-07-18T21:28:47;18.40;99.30
16625;DHT22;8426;48.496;9.098;2022-07-18T21:33:51;18.30;99.10
16625;DHT22;8426;48.496;9.098;2022-07-18T21:39:11;18.10;99.90
16625;DHT22;8426;48.496;9.098;2022-07-18T21:44:22;18.00;99.90
16625;DHT22;8426;48.496;9.098;2022-07-18T21:49:35;17.80;99.90
16625;DHT22;8426;48.496;9.098;2022-07-18T21:54:47;17.70;99.90
16625;DHT22;8426;48.496;9.098;2022-07-18T21:59:52;17.70;99.90
16625;DHT22;8426;48.496;9.098;2022-07-18T22:04:56;17.60;99.90
16625;DHT22;8426;48.496;9.098;2022-07-18T22:10:02;17.30;99.90
16625;DHT22;8426;48.496;9.098;2022-07-18T22:15:08;17.10;99.90
16625;DHT22;8426;48.496;9.098;2022-07-18T22:20:13;17.00;99.90
16625;DHT22;8426;48.496;9.098;2022-07-18T22:25:19;16.90;99.90
16625;DHT22;8426;48.496;9.098;2022-07-18T22:30:22;16.90;99.90
16625;DHT22;8426;48.496;9.098;2022-07-18T22:35:26;16.80;99.90
16625;DHT22;8426;48.496;9.098;2022-07-18T22:40:32;16.80;99.90
16625;DHT22;8426;48.496;9.098;2022-07-18T22:45:44;16.80;99.90
16625;DHT22;8426;48.496;9.098;2022-07-18T22:50:48;16.80;99.90
16625;DHT22;8426;48.496;9.098;2022-07-18T22:55:54;16.70;99.90
16625;DHT22;8426;48.496;9.098;2022-07-18T23:00:57;16.50;99.90
16625;DHT22;8426;48.496;9.098;2022-07-18T23:06:00;16.40;99.90
16625;DHT22;8426;48.496;9.098;2022-07-18T23:11:06;16.40;99.90
16625;DHT22;8426;48.496;9.098;2022-07-18T23:16:09;16.30;99.90
16625;DHT22;8426;48.496;9.098;2022-07-18T23:21:13;16.20;99.90
16625;DHT22;8426;48.496;9.098;2022-07-18T23:26:18;16.20;99.90
16625;DHT22;8426;48.496;9.098;2022-07-18T23:31:22;16.10;99.90
16625;DHT22;8426;48.496;9.098;2022-07-18T23:36:26;16.00;99.90
16625;DHT22;8426;48.496;9.098;2022-07-18T23:41:31;15.90;99.90
16625;DHT22;8426;48.496;9.098;2022-07-18T23:46:35;15.80;99.90
16625;DHT22;8426;48.496;9.098;2022-07-18T23:51:38;15.70;99.90
16625;DHT22;8426;48.496;9.098;2022-07-18T23:56:43;15.50;99.90
